Flight Track Log - Related Links

Times and Time Zones

All times are in EDT time to prevent confusion due to time zone crossing. See the DAL1515 flight status page for this flight to view local times or setup timezone preferences in your user account.

Time Position Orientation Groundspeed Altitude Reporting Facility
EDT Latitude Longitude Course Direction KTS MPH feet Rate Location/Type
Mon 09:10:00 PM 41.0005 -76.1606 39° Northeast  Level Estimated
Mon 09:11:00 PM 41.0121 -76.1456 44° Northeast  Level Estimated
Mon 09:12:00 PM 41.0237 -76.1305 44° Northeast  Level Estimated
Mon 09:13:00 PM 41.0354 -76.1155 44° Northeast  Level Estimated
Mon 09:14:00 PM 41.0470 -76.1004 44° Northeast  Level Estimated
Mon 09:15:00 PM 41.0586 -76.0853 44° Northeast  Level Estimated
Mon 09:16:00 PM 41.0702 -76.0703 44° Northeast  Level Estimated
Mon 09:17:00 PM 41.0818 -76.0552 44° Northeast  Level Estimated
Mon 09:18:00 PM 41.0934 -76.0401 44° Northeast  Level Estimated
Mon 09:19:00 PM 41.1050 -76.0250 44° Northeast  Level Estimated
Mon 09:20:00 PM 41.1166 -76.0099 44° Northeast  Level Estimated
Mon 09:21:00 PM 41.1282 -75.9948 44° Northeast  Level Estimated
Mon 09:22:00 PM 41.1398 -75.9797 44° Northeast  Level Estimated
Mon 09:23:00 PM 41.1513 -75.9646 44° Northeast  Level Estimated
Mon 09:24:00 PM 41.1629 -75.9495 44° Northeast  Level Estimated
Mon 09:25:00 PM 41.1745 -75.9344 44° Northeast  Level Estimated
Mon 09:26:00 PM 41.1861 -75.9193 44° Northeast  Level Estimated
Mon 09:27:00 PM 41.1977 -75.9042 45° Northeast  Level Estimated
Mon 09:28:00 PM 41.2093 -75.8890 45° Northeast  Level Estimated
Mon 09:29:00 PM 41.2208 -75.8739 45° Northeast  Level Estimated
Mon 09:30:00 PM 41.2324 -75.8587 45° Northeast  Level Estimated
Mon 09:31:00 PM 41.2440 -75.8436 45° Northeast  Level Estimated
Mon 09:32:00 PM 41.2556 -75.8284 45° Northeast  Level Estimated
Mon 09:33:00 PM 41.2671 -75.8133 45° Northeast  Level Estimated
Mon 09:34:00 PM 41.2787 -75.7981 45° Northeast  Level Estimated
Mon 09:35:00 PM 41.2903 -75.7829 45° Northeast  Level Estimated
Mon 09:36:00 PM 41.3018 -75.7678 45° Northeast  Level Estimated
Mon 09:37:00 PM 41.3134 -75.7526 45° Northeast  Level Estimated
Mon 09:38:00 PM 41.3250 -75.7374 45° Northeast  Level Estimated
Mon 09:39:00 PM 41.3365 -75.7222 45° Northeast  Level Estimated
Mon 09:40:00 PM 41.3481 -75.7070 45° Northeast  Level Estimated
Mon 09:41:00 PM 41.3596 -75.6918 45° Northeast  Level Estimated
Mon 09:42:00 PM 41.3712 -75.6766 45° Northeast  Level Estimated
Mon 09:43:00 PM 41.3827 -75.6614 45° Northeast  Level Estimated
Mon 09:44:00 PM 41.3943 -75.6462 45° Northeast  Level Estimated
Mon 09:45:00 PM 41.4058 -75.6309 45° Northeast  Level Estimated
Mon 09:46:00 PM 41.4174 -75.6157 45° Northeast  Level Estimated
Mon 09:47:00 PM 41.4289 -75.6005 45° Northeast  Level Estimated
Mon 09:48:00 PM 41.4404 -75.5852 45° Northeast  Level Estimated
Mon 09:49:00 PM 41.4520 -75.5700 45° Northeast  Level Estimated
Mon 09:50:00 PM 41.4635 -75.5547 45° Northeast  Level Estimated
Mon 09:51:00 PM 41.4751 -75.5395 45° Northeast  Level Estimated
Mon 09:52:00 PM 41.4866 -75.5242 45° Northeast  Level Estimated
Mon 09:53:00 PM 41.4981 -75.5089 45° Northeast  Level Estimated
Mon 09:54:00 PM 41.5096 -75.4937 45° Northeast  Level Estimated
Mon 09:55:00 PM 41.5212 -75.4784 45° Northeast  Level Estimated
Mon 09:56:00 PM 41.5327 -75.4631 45° Northeast  Level Estimated
Mon 09:57:00 PM 41.5442 -75.4478 45° Northeast  Level Estimated
Mon 09:58:00 PM 41.5557 -75.4325 45° Northeast  Level Estimated
Mon 09:59:00 PM 41.5672 -75.4172 45° Northeast  Level Estimated
Mon 10:00:00 PM 41.5788 -75.4019 45° Northeast  Level Estimated
Mon 10:01:00 PM 41.5903 -75.3866 45° Northeast  Level Estimated
Mon 10:02:00 PM 41.6018 -75.3713 45° Northeast  Level Estimated
Mon 10:03:00 PM 41.6133 -75.3560 45° Northeast  Level Estimated
Mon 10:04:00 PM 41.6248 -75.3406 45° Northeast  Level Estimated
Mon 10:05:00 PM 41.6363 -75.3253 45° Northeast  Level Estimated
Mon 10:06:00 PM 41.6478 -75.3100 45° Northeast  Level Estimated
Mon 10:07:00 PM 41.6593 -75.2946 45° Northeast  Level Estimated
Mon 10:08:00 PM 41.6708 -75.2793 45° Northeast  Level Estimated
Mon 10:09:00 PM 41.6823 -75.2639 45° Northeast  Level Estimated
Mon 10:10:00 PM 41.6938 -75.2486 45° Northeast  Level Estimated
Mon 10:11:00 PM 41.7053 -75.2332 45° Northeast  Level Estimated
Mon 10:12:00 PM 41.7168 -75.2178 45° Northeast  Level Estimated
Mon 10:13:00 PM 41.7283 -75.2024 45° Northeast  Level Estimated
Mon 10:14:00 PM 41.7398 -75.1870 45° Northeast  Level Estimated
Mon 10:15:00 PM 41.7513 -75.1717 45° Northeast  Level Estimated
Mon 10:16:00 PM 41.7627 -75.1563 45° Northeast  Level Estimated
Mon 10:17:00 PM 41.7742 -75.1409 45° Northeast  Level Estimated
Mon 10:18:00 PM 41.7857 -75.1255 45° Northeast  Level Estimated
Mon 10:19:00 PM 41.7972 -75.1100 45° Northeast  Level Estimated
Mon 10:20:00 PM 41.8087 -75.0946 45° Northeast  Level Estimated
Mon 10:21:00 PM 41.8201 -75.0792 45° Northeast  Level Estimated
Mon 10:22:00 PM 41.8316 -75.0638 45° Northeast  Level Estimated
Mon 10:23:00 PM 41.8431 -75.0483 45° Northeast  Level Estimated
Mon 10:24:00 PM 41.8545 -75.0329 45° Northeast  Level Estimated
Mon 10:25:00 PM 41.8660 -75.0175 45° Northeast  Level Estimated
Mon 10:26:00 PM 41.8774 -75.0020 45° Northeast  Level Estimated
Mon 10:27:00 PM 41.8889 -74.9866 45° Northeast  Level Estimated
Mon 10:28:00 PM 41.9004 -74.9711 45° Northeast  Level Estimated
Mon 10:29:00 PM 41.9118 -74.9556 45° Northeast  Level Estimated
Mon 10:30:00 PM 41.9233 -74.9402 45° Northeast  Level Estimated
Mon 10:31:00 PM 41.9347 -74.9247 45° Northeast  Level Estimated
Mon 10:32:00 PM 41.9462 -74.9092 45° Northeast  Level Estimated
Mon 10:33:00 PM 41.9576 -74.8937 45° Northeast  Level Estimated
Mon 10:34:00 PM 41.9691 -74.8782 45° Northeast  Level Estimated
Mon 10:35:00 PM 41.9805 -74.8627 45° Northeast  Level Estimated
Mon 10:36:00 PM 41.9920 -74.8472 45° Northeast  Level Estimated
Mon 10:37:00 PM 42.0034 -74.8317 45° Northeast  Level Estimated
Mon 10:38:00 PM 42.0148 -74.8162 45° Northeast  Level Estimated
Mon 10:39:00 PM 42.0263 -74.8007 45° Northeast  Level Estimated
Mon 10:40:00 PM 42.0377 -74.7851 45° Northeast  Level Estimated
Mon 10:41:00 PM 42.0491 -74.7696 45° Northeast  Level Estimated
Mon 10:42:00 PM 42.0606 -74.7541 45° Northeast  Level Estimated
Mon 10:43:00 PM 42.0720 -74.7385 45° Northeast  Level Estimated
Mon 10:44:00 PM 42.0834 -74.7230 45° Northeast  Level Estimated
Mon 10:45:00 PM 42.0948 -74.7074 45° Northeast  Level Estimated
Mon 10:46:00 PM 42.1063 -74.6918 45° Northeast  Level Estimated
Mon 10:47:00 PM 42.1177 -74.6763 45° Northeast  Level Estimated
Mon 10:48:00 PM 42.1291 -74.6607 45° Northeast  Level Estimated
Mon 10:49:00 PM 42.1405 -74.6451 45° Northeast  Level Estimated
Mon 10:50:00 PM 42.1519 -74.6295 45° Northeast  Level Estimated
Mon 10:51:00 PM 42.1633 -74.6140 45° Northeast  Level Estimated
Mon 10:52:00 PM 42.1747 -74.5984 45° Northeast  Level Estimated
Mon 10:53:00 PM 42.1861 -74.5828 45° Northeast  Level Estimated
Mon 10:54:00 PM 42.1976 -74.5672 45° Northeast  Level Estimated
Mon 10:55:00 PM 42.2090 -74.5516 45° Northeast  Level Estimated
Mon 10:56:00 PM 42.2203 -74.5359 45° Northeast  Level Estimated
Mon 10:57:00 PM 42.2318 -74.5203 45° Northeast  Level Estimated
Mon 10:58:00 PM 42.2431 -74.5047 45° Northeast  Level Estimated
Mon 10:59:00 PM 42.2545 -74.4891 45° Northeast  Level Estimated
Mon 11:00:00 PM 42.2659 -74.4734 45° Northeast  Level Estimated
Mon 11:01:00 PM 42.2773 -74.4578 45° Northeast  Level Estimated
Mon 11:02:00 PM 42.2887 -74.4421 45° Northeast  Level Estimated
Mon 11:03:00 PM 42.3001 -74.4265 45° Northeast  Level Estimated
Mon 11:04:00 PM 42.3115 -74.4108 45° Northeast  Level Estimated
Mon 11:05:00 PM 42.3228 -74.3951 46° Northeast  Level Estimated
Mon 11:06:00 PM 42.3342 -74.3794 46° Northeast  Level Estimated
Mon 11:07:00 PM 42.3456 -74.3638 46° Northeast  Level Estimated
Mon 11:08:00 PM 42.3570 -74.3481 46° Northeast  Level Estimated
Mon 11:09:00 PM 42.3684 -74.3324 46° Northeast  Level Estimated
Mon 11:10:00 PM 42.3797 -74.3167 46° Northeast  Level Estimated
Mon 11:11:00 PM 42.3911 -74.3010 46° Northeast  Level Estimated
Mon 11:12:00 PM 42.4025 -74.2853 46° Northeast  Level Estimated
Mon 11:13:00 PM 42.4138 -74.2696 46° Northeast  Level Estimated
Mon 11:14:00 PM 42.4252 -74.2539 46° Northeast  Level Estimated
Mon 11:15:00 PM 42.4365 -74.2381 46° Northeast  Level Estimated
Mon 11:16:00 PM 42.4479 -74.2224 46° Northeast  Level Estimated
Mon 11:17:00 PM 42.4593 -74.2067 46° Northeast  Level Estimated
Mon 11:18:00 PM 42.4706 -74.1909 46° Northeast  Level Estimated
Mon 11:19:00 PM 42.4819 -74.1752 46° Northeast  Level Estimated
Mon 11:20:00 PM 42.4933 -74.1594 46° Northeast  Level Estimated
Mon 11:21:00 PM 42.5047 -74.1437 46° Northeast  Level Estimated
Mon 11:22:00 PM 42.5160 -74.1279 46° Northeast  Level Estimated
Mon 11:23:00 PM 42.5273 -74.1121 46° Northeast  Level Estimated
Mon 11:24:00 PM 42.5387 -74.0964 46° Northeast  Level Estimated
Mon 11:25:00 PM 42.5500 -74.0806 46° Northeast  Level Estimated
Mon 11:26:00 PM 42.5614 -74.0648 46° Northeast  Level Estimated
Mon 11:27:00 PM 42.5727 -74.0490 46° Northeast  Level Estimated
Mon 11:28:00 PM 42.5840 -74.0332 46° Northeast  Level Estimated
Mon 11:29:00 PM 42.5953 -74.0174 46° Northeast  Level Estimated
Mon 11:30:00 PM 42.6067 -74.0016 46° Northeast  Level Estimated
Mon 11:31:00 PM 42.6180 -73.9857 46° Northeast  Level Estimated
Mon 11:32:00 PM 42.6293 -73.9699 46° Northeast  Level Estimated
Mon 11:33:00 PM 42.6406 -73.9541 46° Northeast  Level Estimated
Mon 11:34:00 PM 42.6520 -73.9383 46° Northeast  Level Estimated
Mon 11:35:00 PM 42.6633 -73.9224 46° Northeast  Level Estimated
Mon 11:36:00 PM 42.6746 -73.9066 46° Northeast  Level Estimated
Mon 11:37:00 PM 42.6859 -73.8907 46° Northeast  Level Estimated
Mon 11:38:00 PM 42.6972 -73.8749 46° Northeast  Level Estimated
Mon 11:39:00 PM 42.7085 -73.8590 46° Northeast  Level Estimated
Mon 11:40:00 PM 42.7198 -73.8431 46° Northeast  Level Estimated
Mon 11:41:00 PM 42.7311 -73.8273 46° Northeast  Level Estimated
Mon 11:42:00 PM 42.7424 -73.8114 46° Northeast  Level Estimated
Mon 11:43:00 PM 42.7491 -73.8020 46° Northeast  Level Estimated
Mon 11:44:00 PM 42.7491 -73.8020 304° West  Level Estimated
Mon 11:45:00 PM 42.7491 -73.8020 304° West  Level Estimated
Mon 11:46:00 PM 42.7491 -73.8020 304° West  Level Estimated
Mon 11:47:00 PM 42.7491 -73.8020 304° West  Level Estimated
Mon 11:48:00 PM 42.7491 -73.8020 304° West  Level Estimated
Mon 11:49:00 PM 42.7491 -73.8020 304° West  Level Estimated
Mon 11:50:00 PM 42.7491 -73.8020 304° West  Level Estimated
Mon 11:51:00 PM 42.7491 -73.8020 304° West  Level Estimated
Mon 11:52:00 PM 42.7491 -73.8020 304° West  Level Estimated
Mon 11:53:00 PM 42.7491 -73.8020 304° West  Level Estimated
Mon 11:54:00 PM 42.7491 -73.8020 304° West  Level Estimated
Mon 11:55:00 PM 42.7491 -73.8020 304° West  Level Estimated
Mon 11:56:00 PM 42.7491 -73.8020 304° West  Level Estimated
Mon 11:57:00 PM 42.7491 -73.8020 304° West  Level Estimated
Mon 11:58:00 PM 42.7491 -73.8020 304° West  Level Estimated
Mon 11:59:00 PM 42.7491 -73.8020 304° West  Level Estimated

Login

Don't have an account? Register now (free) for customized features, flight alerts, and more!